sensor_id;sensor_type;location;lat;lon;timestamp;P1;durP1;ratioP1;P2;durP2;ratioP2
11771;SDS011;12556;55.748;13.194;2023-04-24T00:02:01;16.07;;;13.03;;
11771;SDS011;12556;55.748;13.194;2023-04-24T00:04:28;21.83;;;14.23;;
11771;SDS011;12556;55.748;13.194;2023-04-24T00:06:56;18.77;;;13.17;;
11771;SDS011;12556;55.748;13.194;2023-04-24T00:09:26;17.70;;;13.30;;
11771;SDS011;12556;55.748;13.194;2023-04-24T00:11:53;15.97;;;13.10;;
11771;SDS011;12556;55.748;13.194;2023-04-24T00:14:21;18.00;;;13.53;;
11771;SDS011;12556;55.748;13.194;2023-04-24T00:16:48;17.03;;;13.10;;
11771;SDS011;12556;55.748;13.194;2023-04-24T00:19:14;19.60;;;13.80;;
11771;SDS011;12556;55.748;13.194;2023-04-24T00:21:41;19.20;;;13.20;;
11771;SDS011;12556;55.748;13.194;2023-04-24T00:24:08;16.03;;;13.40;;
11771;SDS011;12556;55.748;13.194;2023-04-24T00:26:37;17.60;;;13.10;;
11771;SDS011;12556;55.748;13.194;2023-04-24T00:29:04;14.97;;;12.37;;
11771;SDS011;12556;55.748;13.194;2023-04-24T00:31:31;15.70;;;12.50;;
11771;SDS011;12556;55.748;13.194;2023-04-24T00:33:59;15.87;;;12.13;;
11771;SDS011;12556;55.748;13.194;2023-04-24T00:36:27;16.83;;;12.80;;
11771;SDS011;12556;55.748;13.194;2023-04-24T00:38:54;14.57;;;12.33;;
11771;SDS011;12556;55.748;13.194;2023-04-24T00:41:21;17.93;;;12.57;;
11771;SDS011;12556;55.748;13.194;2023-04-24T00:43:49;16.20;;;13.03;;
11771;SDS011;12556;55.748;13.194;2023-04-24T00:46:16;15.67;;;12.47;;
11771;SDS011;12556;55.748;13.194;2023-04-24T00:48:43;20.73;;;15.07;;
11771;SDS011;12556;55.748;13.194;2023-04-24T00:51:10;22.53;;;15.67;;
11771;SDS011;12556;55.748;13.194;2023-04-24T00:53:37;19.90;;;15.37;;
11771;SDS011;12556;55.748;13.194;2023-04-24T00:56:05;19.73;;;15.53;;
11771;SDS011;12556;55.748;13.194;2023-04-24T00:58:32;20.87;;;15.37;;
11771;SDS011;12556;55.748;13.194;2023-04-24T01:01:00;22.47;;;16.43;;
11771;SDS011;12556;55.748;13.194;2023-04-24T01:03:32;22.07;;;17.07;;
11771;SDS011;12556;55.748;13.194;2023-04-24T01:06:02;20.17;;;15.40;;
11771;SDS011;12556;55.748;13.194;2023-04-24T01:08:29;22.80;;;16.43;;
11771;SDS011;12556;55.748;13.194;2023-04-24T01:10:57;21.33;;;16.07;;
11771;SDS011;12556;55.748;13.194;2023-04-24T01:13:24;24.90;;;16.50;;
11771;SDS011;12556;55.748;13.194;2023-04-24T01:15:51;22.77;;;16.73;;
11771;SDS011;12556;55.748;13.194;2023-04-24T01:18:19;20.73;;;15.67;;
11771;SDS011;12556;55.748;13.194;2023-04-24T01:20:46;19.43;;;15.63;;
11771;SDS011;12556;55.748;13.194;2023-04-24T01:23:15;19.63;;;15.80;;
11771;SDS011;12556;55.748;13.194;2023-04-24T01:25:43;20.50;;;14.63;;
11771;SDS011;12556;55.748;13.194;2023-04-24T01:28:10;19.20;;;14.50;;
11771;SDS011;12556;55.748;13.194;2023-04-24T01:30:39;17.57;;;12.90;;
11771;SDS011;12556;55.748;13.194;2023-04-24T01:33:06;16.00;;;12.70;;
11771;SDS011;12556;55.748;13.194;2023-04-24T01:35:33;16.37;;;12.07;;
11771;SDS011;12556;55.748;13.194;2023-04-24T01:38:01;16.63;;;12.47;;
11771;SDS011;12556;55.748;13.194;2023-04-24T01:40:29;16.73;;;11.37;;
11771;SDS011;12556;55.748;13.194;2023-04-24T01:42:57;17.17;;;13.53;;
11771;SDS011;12556;55.748;13.194;2023-04-24T01:45:24;16.17;;;12.70;;
11771;SDS011;12556;55.748;13.194;2023-04-24T01:47:51;14.10;;;12.03;;
11771;SDS011;12556;55.748;13.194;2023-04-24T01:50:18;16.93;;;12.90;;
11771;SDS011;12556;55.748;13.194;2023-04-24T01:52:45;16.97;;;12.83;;
11771;SDS011;12556;55.748;13.194;2023-04-24T01:55:12;16.37;;;12.43;;
11771;SDS011;12556;55.748;13.194;2023-04-24T01:57:41;14.57;;;11.83;;
11771;SDS011;12556;55.748;13.194;2023-04-24T02:00:08;14.93;;;12.97;;
11771;SDS011;12556;55.748;13.194;2023-04-24T02:02:37;17.33;;;13.40;;
11771;SDS011;12556;55.748;13.194;2023-04-24T02:05:05;16.57;;;13.67;;
11771;SDS011;12556;55.748;13.194;2023-04-24T02:07:33;18.90;;;13.23;;
11771;SDS011;12556;55.748;13.194;2023-04-24T02:10:00;14.83;;;11.33;;
11771;SDS011;12556;55.748;13.194;2023-04-24T02:12:27;17.37;;;13.30;;
11771;SDS011;12556;55.748;13.194;2023-04-24T02:14:55;16.90;;;11.80;;
11771;SDS011;12556;55.748;13.194;2023-04-24T02:17:22;17.03;;;12.73;;
11771;SDS011;12556;55.748;13.194;2023-04-24T02:19:49;15.80;;;11.87;;
11771;SDS011;12556;55.748;13.194;2023-04-24T02:22:16;15.87;;;12.00;;
11771;SDS011;12556;55.748;13.194;2023-04-24T02:24:43;16.57;;;12.47;;
11771;SDS011;12556;55.748;13.194;2023-04-24T02:27:10;15.37;;;11.70;;
11771;SDS011;12556;55.748;13.194;2023-04-24T02:29:37;15.17;;;12.20;;
11771;SDS011;12556;55.748;13.194;2023-04-24T02:32:06;16.77;;;12.40;;
11771;SDS011;12556;55.748;13.194;2023-04-24T02:34:36;18.53;;;14.30;;
11771;SDS011;12556;55.748;13.194;2023-04-24T02:37:03;18.47;;;14.70;;
11771;SDS011;12556;55.748;13.194;2023-04-24T02:39:30;18.57;;;15.17;;
11771;SDS011;12556;55.748;13.194;2023-04-24T02:41:57;22.30;;;15.60;;
11771;SDS011;12556;55.748;13.194;2023-04-24T02:44:26;22.37;;;16.00;;
11771;SDS011;12556;55.748;13.194;2023-04-24T02:46:53;20.67;;;14.47;;
11771;SDS011;12556;55.748;13.194;2023-04-24T02:49:21;20.93;;;15.40;;
11771;SDS011;12556;55.748;13.194;2023-04-24T02:51:48;18.23;;;15.17;;
11771;SDS011;12556;55.748;13.194;2023-04-24T02:54:15;21.00;;;15.13;;
11771;SDS011;12556;55.748;13.194;2023-04-24T02:56:42;25.17;;;16.77;;
11771;SDS011;12556;55.748;13.194;2023-04-24T02:59:09;23.10;;;16.73;;
11771;SDS011;12556;55.748;13.194;2023-04-24T03:01:36;22.73;;;17.07;;
11771;SDS011;12556;55.748;13.194;2023-04-24T03:04:03;23.40;;;16.97;;
11771;SDS011;12556;55.748;13.194;2023-04-24T03:06:31;22.87;;;16.47;;
11771;SDS011;12556;55.748;13.194;2023-04-24T03:09:00;25.83;;;18.33;;
11771;SDS011;12556;55.748;13.194;2023-04-24T03:11:28;24.43;;;18.83;;
11771;SDS011;12556;55.748;13.194;2023-04-24T03:13:55;23.77;;;18.13;;
11771;SDS011;12556;55.748;13.194;2023-04-24T03:16:22;27.47;;;19.80;;
11771;SDS011;12556;55.748;13.194;2023-04-24T03:18:49;27.33;;;19.70;;
11771;SDS011;12556;55.748;13.194;2023-04-24T03:21:17;26.07;;;19.87;;
11771;SDS011;12556;55.748;13.194;2023-04-24T03:23:45;26.20;;;19.07;;
11771;SDS011;12556;55.748;13.194;2023-04-24T03:26:12;26.40;;;18.37;;
11771;SDS011;12556;55.748;13.194;2023-04-24T03:28:39;27.53;;;18.77;;
11771;SDS011;12556;55.748;13.194;2023-04-24T03:31:06;28.27;;;20.73;;
11771;SDS011;12556;55.748;13.194;2023-04-24T03:33:33;28.50;;;20.77;;
11771;SDS011;12556;55.748;13.194;2023-04-24T03:36:01;31.33;;;22.23;;
11771;SDS011;12556;55.748;13.194;2023-04-24T03:38:28;31.10;;;21.97;;
11771;SDS011;12556;55.748;13.194;2023-04-24T03:40:56;32.80;;;22.17;;
11771;SDS011;12556;55.748;13.194;2023-04-24T03:43:23;35.60;;;22.90;;
11771;SDS011;12556;55.748;13.194;2023-04-24T03:45:50;32.60;;;22.03;;
11771;SDS011;12556;55.748;13.194;2023-04-24T03:48:17;29.03;;;20.57;;
11771;SDS011;12556;55.748;13.194;2023-04-24T03:50:43;26.57;;;18.33;;
11771;SDS011;12556;55.748;13.194;2023-04-24T03:53:10;25.97;;;18.13;;
11771;SDS011;12556;55.748;13.194;2023-04-24T03:55:37;24.23;;;18.07;;
11771;SDS011;12556;55.748;13.194;2023-04-24T03:58:06;24.43;;;17.87;;
11771;SDS011;12556;55.748;13.194;2023-04-24T04:00:33;25.03;;;17.87;;
11771;SDS011;12556;55.748;13.194;2023-04-24T04:03:00;23.47;;;17.10;;
11771;SDS011;12556;55.748;13.194;2023-04-24T04:05:27;24.63;;;16.93;;
11771;SDS011;12556;55.748;13.194;2023-04-24T04:07:54;24.17;;;16.07;;
11771;SDS011;12556;55.748;13.194;2023-04-24T04:10:21;23.97;;;16.97;;
11771;SDS011;12556;55.748;13.194;2023-04-24T04:12:48;22.53;;;15.77;;
11771;SDS011;12556;55.748;13.194;2023-04-24T04:15:16;20.77;;;15.57;;
11771;SDS011;12556;55.748;13.194;2023-04-24T04:17:43;20.27;;;13.90;;
11771;SDS011;12556;55.748;13.194;2023-04-24T04:20:10;22.23;;;15.10;;
11771;SDS011;12556;55.748;13.194;2023-04-24T04:22:38;22.37;;;15.03;;
11771;SDS011;12556;55.748;13.194;2023-04-24T04:25:06;24.77;;;16.80;;
11771;SDS011;12556;55.748;13.194;2023-04-24T04:27:34;23.77;;;17.07;;
11771;SDS011;12556;55.748;13.194;2023-04-24T04:30:01;23.60;;;17.50;;
11771;SDS011;12556;55.748;13.194;2023-04-24T04:32:31;24.67;;;16.93;;
11771;SDS011;12556;55.748;13.194;2023-04-24T04:34:59;24.20;;;16.73;;
11771;SDS011;12556;55.748;13.194;2023-04-24T04:37:28;22.50;;;15.87;;
11771;SDS011;12556;55.748;13.194;2023-04-24T04:39:55;22.03;;;16.43;;
11771;SDS011;12556;55.748;13.194;2023-04-24T04:42:23;24.97;;;16.77;;
11771;SDS011;12556;55.748;13.194;2023-04-24T04:44:50;23.03;;;16.33;;
11771;SDS011;12556;55.748;13.194;2023-04-24T04:47:17;21.10;;;14.60;;
11771;SDS011;12556;55.748;13.194;2023-04-24T04:49:45;23.93;;;15.03;;
11771;SDS011;12556;55.748;13.194;2023-04-24T04:52:13;22.07;;;14.53;;
11771;SDS011;12556;55.748;13.194;2023-04-24T04:54:42;22.27;;;14.57;;
11771;SDS011;12556;55.748;13.194;2023-04-24T04:57:08;18.90;;;13.97;;
11771;SDS011;12556;55.748;13.194;2023-04-24T04:59:37;19.87;;;14.50;;
11771;SDS011;12556;55.748;13.194;2023-04-24T05:02:04;19.87;;;14.37;;
11771;SDS011;12556;55.748;13.194;2023-04-24T05:04:30;20.43;;;15.87;;
11771;SDS011;12556;55.748;13.194;2023-04-24T05:06:59;18.40;;;15.00;;
11771;SDS011;12556;55.748;13.194;2023-04-24T05:09:26;18.57;;;13.53;;
11771;SDS011;12556;55.748;13.194;2023-04-24T05:11:54;23.80;;;14.83;;
11771;SDS011;12556;55.748;13.194;2023-04-24T05:14:21;19.20;;;14.63;;
11771;SDS011;12556;55.748;13.194;2023-04-24T05:16:48;19.60;;;13.97;;
11771;SDS011;12556;55.748;13.194;2023-04-24T05:19:15;18.83;;;14.87;;
11771;SDS011;12556;55.748;13.194;2023-04-24T05:21:42;16.10;;;13.57;;
11771;SDS011;12556;55.748;13.194;2023-04-24T05:24:11;20.13;;;13.63;;
11771;SDS011;12556;55.748;13.194;2023-04-24T05:26:38;16.30;;;12.53;;
11771;SDS011;12556;55.748;13.194;2023-04-24T05:29:05;15.00;;;11.53;;
11771;SDS011;12556;55.748;13.194;2023-04-24T05:31:32;15.57;;;12.80;;
11771;SDS011;12556;55.748;13.194;2023-04-24T05:33:59;16.90;;;12.53;;
11771;SDS011;12556;55.748;13.194;2023-04-24T05:36:26;13.43;;;12.03;;
11771;SDS011;12556;55.748;13.194;2023-04-24T05:38:53;14.60;;;11.73;;
11771;SDS011;12556;55.748;13.194;2023-04-24T05:41:21;16.20;;;11.70;;
11771;SDS011;12556;55.748;13.194;2023-04-24T05:43:48;14.43;;;12.13;;
11771;SDS011;12556;55.748;13.194;2023-04-24T05:46:16;14.13;;;11.37;;
11771;SDS011;12556;55.748;13.194;2023-04-24T05:48:43;12.77;;;11.33;;
11771;SDS011;12556;55.748;13.194;2023-04-24T05:51:10;13.30;;;10.97;;
11771;SDS011;12556;55.748;13.194;2023-04-24T05:53:36;13.53;;;10.93;;
11771;SDS011;12556;55.748;13.194;2023-04-24T05:56:03;14.37;;;11.77;;
11771;SDS011;12556;55.748;13.194;2023-04-24T05:58:32;12.20;;;10.83;;
11771;SDS011;12556;55.748;13.194;2023-04-24T06:00:59;12.97;;;10.27;;
11771;SDS011;12556;55.748;13.194;2023-04-24T06:03:26;15.63;;;11.90;;
11771;SDS011;12556;55.748;13.194;2023-04-24T06:05:53;14.17;;;11.17;;
11771;SDS011;12556;55.748;13.194;2023-04-24T06:08:20;13.23;;;9.47;;
11771;SDS011;12556;55.748;13.194;2023-04-24T06:10:47;11.10;;;10.00;;
11771;SDS011;12556;55.748;13.194;2023-04-24T06:13:14;14.27;;;9.93;;
11771;SDS011;12556;55.748;13.194;2023-04-24T06:15:43;13.43;;;10.30;;
11771;SDS011;12556;55.748;13.194;2023-04-24T06:18:10;12.03;;;10.13;;
11771;SDS011;12556;55.748;13.194;2023-04-24T06:20:37;11.77;;;9.33;;
11771;SDS011;12556;55.748;13.194;2023-04-24T06:23:04;10.80;;;9.63;;
11771;SDS011;12556;55.748;13.194;2023-04-24T06:25:31;12.47;;;9.23;;
11771;SDS011;12556;55.748;13.194;2023-04-24T06:27:58;11.23;;;8.27;;
11771;SDS011;12556;55.748;13.194;2023-04-24T06:30:26;9.97;;;8.50;;
11771;SDS011;12556;55.748;13.194;2023-04-24T06:32:55;14.27;;;8.30;;
11771;SDS011;12556;55.748;13.194;2023-04-24T06:35:21;9.13;;;8.17;;
11771;SDS011;12556;55.748;13.194;2023-04-24T06:37:48;9.53;;;8.53;;
11771;SDS011;12556;55.748;13.194;2023-04-24T06:40:15;9.93;;;8.10;;
11771;SDS011;12556;55.748;13.194;2023-04-24T06:42:43;8.93;;;6.93;;
11771;SDS011;12556;55.748;13.194;2023-04-24T06:45:10;12.70;;;8.43;;
11771;SDS011;12556;55.748;13.194;2023-04-24T06:47:37;8.47;;;7.47;;
11771;SDS011;12556;55.748;13.194;2023-04-24T06:50:06;8.20;;;7.37;;
11771;SDS011;12556;55.748;13.194;2023-04-24T06:52:34;7.60;;;6.80;;
11771;SDS011;12556;55.748;13.194;2023-04-24T06:55:01;8.60;;;7.30;;
11771;SDS011;12556;55.748;13.194;2023-04-24T06:57:28;6.77;;;6.07;;
11771;SDS011;12556;55.748;13.194;2023-04-24T06:59:55;7.17;;;6.40;;
11771;SDS011;12556;55.748;13.194;2023-04-24T07:02:22;6.73;;;6.07;;
11771;SDS011;12556;55.748;13.194;2023-04-24T07:04:49;8.77;;;6.00;;
11771;SDS011;12556;55.748;13.194;2023-04-24T07:07:17;8.00;;;6.27;;
11771;SDS011;12556;55.748;13.194;2023-04-24T07:09:44;6.73;;;5.87;;
11771;SDS011;12556;55.748;13.194;2023-04-24T07:12:11;6.67;;;5.80;;
11771;SDS011;12556;55.748;13.194;2023-04-24T07:14:39;6.33;;;5.73;;
11771;SDS011;12556;55.748;13.194;2023-04-24T07:17:06;6.43;;;5.90;;
11771;SDS011;12556;55.748;13.194;2023-04-24T07:19:33;6.77;;;5.93;;
11771;SDS011;12556;55.748;13.194;2023-04-24T07:22:01;5.90;;;5.30;;
11771;SDS011;12556;55.748;13.194;2023-04-24T07:24:29;6.87;;;5.40;;
11771;SDS011;12556;55.748;13.194;2023-04-24T07:26:57;5.63;;;5.10;;
11771;SDS011;12556;55.748;13.194;2023-04-24T07:29:24;5.33;;;4.83;;
11771;SDS011;12556;55.748;13.194;2023-04-24T07:31:51;6.40;;;5.20;;
11771;SDS011;12556;55.748;13.194;2023-04-24T07:34:19;5.13;;;4.63;;
11771;SDS011;12556;55.748;13.194;2023-04-24T07:36:45;5.60;;;5.10;;
11771;SDS011;12556;55.748;13.194;2023-04-24T07:39:13;6.07;;;4.70;;
11771;SDS011;12556;55.748;13.194;2023-04-24T07:41:41;6.40;;;5.43;;
11771;SDS011;12556;55.748;13.194;2023-04-24T07:44:08;7.60;;;4.93;;
11771;SDS011;12556;55.748;13.194;2023-04-24T07:46:35;6.27;;;3.90;;
11771;SDS011;12556;55.748;13.194;2023-04-24T07:49:02;4.67;;;4.17;;
11771;SDS011;12556;55.748;13.194;2023-04-24T07:51:30;4.50;;;4.03;;
11771;SDS011;12556;55.748;13.194;2023-04-24T07:53:58;10.87;;;5.43;;
11771;SDS011;12556;55.748;13.194;2023-04-24T07:56:25;5.87;;;4.57;;
11771;SDS011;12556;55.748;13.194;2023-04-24T07:58:53;5.00;;;4.60;;
11771;SDS011;12556;55.748;13.194;2023-04-24T08:01:20;4.63;;;4.13;;
11771;SDS011;12556;55.748;13.194;2023-04-24T08:03:47;5.23;;;4.57;;
11771;SDS011;12556;55.748;13.194;2023-04-24T08:06:14;6.20;;;5.07;;
11771;SDS011;12556;55.748;13.194;2023-04-24T08:08:41;6.47;;;4.70;;
11771;SDS011;12556;55.748;13.194;2023-04-24T08:11:08;7.00;;;5.40;;
11771;SDS011;12556;55.748;13.194;2023-04-24T08:13:35;6.63;;;5.60;;
11771;SDS011;12556;55.748;13.194;2023-04-24T08:16:03;6.23;;;5.37;;
11771;SDS011;12556;55.748;13.194;2023-04-24T08:18:30;7.40;;;5.40;;
11771;SDS011;12556;55.748;13.194;2023-04-24T08:20:57;5.80;;;5.20;;
11771;SDS011;12556;55.748;13.194;2023-04-24T08:23:26;6.17;;;5.43;;
11771;SDS011;12556;55.748;13.194;2023-04-24T08:25:53;6.27;;;5.67;;
11771;SDS011;12556;55.748;13.194;2023-04-24T08:28:20;7.57;;;5.87;;
11771;SDS011;12556;55.748;13.194;2023-04-24T08:30:48;6.77;;;6.00;;
11771;SDS011;12556;55.748;13.194;2023-04-24T08:33:20;6.93;;;5.93;;
11771;SDS011;12556;55.748;13.194;2023-04-24T08:35:48;6.73;;;5.97;;
11771;SDS011;12556;55.748;13.194;2023-04-24T08:38:15;6.00;;;5.40;;
11771;SDS011;12556;55.748;13.194;2023-04-24T08:40:42;5.47;;;4.93;;
11771;SDS011;12556;55.748;13.194;2023-04-24T08:43:10;5.73;;;5.13;;
11771;SDS011;12556;55.748;13.194;2023-04-24T08:45:39;5.20;;;4.70;;
11771;SDS011;12556;55.748;13.194;2023-04-24T08:48:06;6.00;;;4.70;;
11771;SDS011;12556;55.748;13.194;2023-04-24T08:50:35;5.00;;;4.47;;
11771;SDS011;12556;55.748;13.194;2023-04-24T08:53:03;4.80;;;4.30;;
11771;SDS011;12556;55.748;13.194;2023-04-24T08:55:30;4.30;;;3.90;;
11771;SDS011;12556;55.748;13.194;2023-04-24T08:57:59;4.27;;;3.87;;
11771;SDS011;12556;55.748;13.194;2023-04-24T09:00:28;5.30;;;3.97;;
11771;SDS011;12556;55.748;13.194;2023-04-24T09:02:55;6.80;;;4.17;;
11771;SDS011;12556;55.748;13.194;2023-04-24T09:05:22;6.47;;;3.77;;
11771;SDS011;12556;55.748;13.194;2023-04-24T09:07:52;6.43;;;3.67;;
11771;SDS011;12556;55.748;13.194;2023-04-24T09:10:21;3.93;;;3.47;;
11771;SDS011;12556;55.748;13.194;2023-04-24T09:12:49;4.23;;;3.80;;
11771;SDS011;12556;55.748;13.194;2023-04-24T09:15:17;4.40;;;3.50;;
11771;SDS011;12556;55.748;13.194;2023-04-24T09:17:45;4.20;;;3.63;;
11771;SDS011;12556;55.748;13.194;2023-04-24T09:20:13;4.40;;;4.00;;
11771;SDS011;12556;55.748;13.194;2023-04-24T09:22:40;4.57;;;4.17;;
11771;SDS011;12556;55.748;13.194;2023-04-24T09:25:09;4.40;;;4.00;;
11771;SDS011;12556;55.748;13.194;2023-04-24T09:27:40;4.40;;;4.00;;
11771;SDS011;12556;55.748;13.194;2023-04-24T09:30:09;4.93;;;3.93;;
11771;SDS011;12556;55.748;13.194;2023-04-24T09:32:36;5.93;;;4.10;;
11771;SDS011;12556;55.748;13.194;2023-04-24T09:35:07;5.03;;;3.70;;
11771;SDS011;12556;55.748;13.194;2023-04-24T09:37:37;4.03;;;3.63;;
11771;SDS011;12556;55.748;13.194;2023-04-24T09:40:10;3.53;;;3.23;;
11771;SDS011;12556;55.748;13.194;2023-04-24T09:42:38;4.47;;;3.60;;
11771;SDS011;12556;55.748;13.194;2023-04-24T09:45:08;4.53;;;3.60;;
11771;SDS011;12556;55.748;13.194;2023-04-24T09:47:36;3.87;;;3.53;;
11771;SDS011;12556;55.748;13.194;2023-04-24T09:50:13;4.00;;;3.60;;
11771;SDS011;12556;55.748;13.194;2023-04-24T09:52:42;3.80;;;3.50;;
11771;SDS011;12556;55.748;13.194;2023-04-24T09:55:12;4.93;;;3.57;;
11771;SDS011;12556;55.748;13.194;2023-04-24T09:57:49;4.20;;;3.90;;
11771;SDS011;12556;55.748;13.194;2023-04-24T10:00:23;4.40;;;4.00;;
11771;SDS011;12556;55.748;13.194;2023-04-24T10:02:55;4.77;;;4.10;;
11771;SDS011;12556;55.748;13.194;2023-04-24T10:05:23;4.67;;;4.20;;
11771;SDS011;12556;55.748;13.194;2023-04-24T10:07:51;9.60;;;4.63;;
11771;SDS011;12556;55.748;13.194;2023-04-24T10:10:23;6.60;;;3.90;;
11771;SDS011;12556;55.748;13.194;2023-04-24T10:12:50;3.97;;;3.60;;
11771;SDS011;12556;55.748;13.194;2023-04-24T10:15:18;5.03;;;3.40;;
11771;SDS011;12556;55.748;13.194;2023-04-24T10:17:47;5.20;;;3.03;;
11771;SDS011;12556;55.748;13.194;2023-04-24T10:20:17;3.43;;;3.13;;
11771;SDS011;12556;55.748;13.194;2023-04-24T10:22:48;3.50;;;3.20;;
11771;SDS011;12556;55.748;13.194;2023-04-24T10:25:17;5.70;;;3.50;;
11771;SDS011;12556;55.748;13.194;2023-04-24T10:27:47;4.83;;;3.43;;
11771;SDS011;12556;55.748;13.194;2023-04-24T10:30:15;3.40;;;3.10;;
11771;SDS011;12556;55.748;13.194;2023-04-24T10:32:43;4.90;;;3.93;;
11771;SDS011;12556;55.748;13.194;2023-04-24T10:35:10;7.33;;;4.70;;
11771;SDS011;12556;55.748;13.194;2023-04-24T10:37:39;4.17;;;3.77;;
11771;SDS011;12556;55.748;13.194;2023-04-24T10:40:09;4.50;;;3.67;;
11771;SDS011;12556;55.748;13.194;2023-04-24T10:42:39;4.60;;;3.50;;
11771;SDS011;12556;55.748;13.194;2023-04-24T10:45:17;4.37;;;3.73;;
11771;SDS011;12556;55.748;13.194;2023-04-24T10:47:53;4.37;;;3.37;;
11771;SDS011;12556;55.748;13.194;2023-04-24T10:50:23;4.60;;;4.20;;
11771;SDS011;12556;55.748;13.194;2023-04-24T10:52:51;5.50;;;4.20;;
11771;SDS011;12556;55.748;13.194;2023-04-24T10:55:39;4.57;;;4.10;;
11771;SDS011;12556;55.748;13.194;2023-04-24T10:58:08;5.37;;;4.83;;
11771;SDS011;12556;55.748;13.194;2023-04-24T11:00:37;6.10;;;4.70;;
11771;SDS011;12556;55.748;13.194;2023-04-24T11:03:06;4.83;;;4.43;;
11771;SDS011;12556;55.748;13.194;2023-04-24T11:05:50;7.37;;;5.03;;
11771;SDS011;12556;55.748;13.194;2023-04-24T11:08:29;5.30;;;4.80;;
11771;SDS011;12556;55.748;13.194;2023-04-24T11:11:02;6.33;;;5.33;;
11771;SDS011;12556;55.748;13.194;2023-04-24T11:16:35;7.00;;;5.17;;
11771;SDS011;12556;55.748;13.194;2023-04-24T11:19:09;6.07;;;5.47;;
11771;SDS011;12556;55.748;13.194;2023-04-24T11:21:44;9.10;;;5.73;;
11771;SDS011;12556;55.748;13.194;2023-04-24T11:27:05;7.47;;;5.17;;
11771;SDS011;12556;55.748;13.194;2023-04-24T11:29:39;7.73;;;5.93;;
11771;SDS011;12556;55.748;13.194;2023-04-24T11:32:15;6.70;;;6.00;;
11771;SDS011;12556;55.748;13.194;2023-04-24T11:34:53;7.33;;;6.13;;
11771;SDS011;12556;55.748;13.194;2023-04-24T11:37:22;6.40;;;5.80;;
11771;SDS011;12556;55.748;13.194;2023-04-24T11:39:50;6.60;;;5.60;;
11771;SDS011;12556;55.748;13.194;2023-04-24T11:42:18;6.50;;;5.90;;
11771;SDS011;12556;55.748;13.194;2023-04-24T11:44:47;6.35;;;5.75;;
11771;SDS011;12556;55.748;13.194;2023-04-24T11:47:16;6.15;;;5.55;;
11771;SDS011;12556;55.748;13.194;2023-04-24T11:49:43;6.65;;;5.82;;
11771;SDS011;12556;55.748;13.194;2023-04-24T11:52:11;7.40;;;6.25;;
11771;SDS011;12556;55.748;13.194;2023-04-24T11:54:47;7.32;;;6.43;;
11771;SDS011;12556;55.748;13.194;2023-04-24T11:57:15;6.03;;;5.45;;
11771;SDS011;12556;55.748;13.194;2023-04-24T11:59:42;7.85;;;6.05;;
11771;SDS011;12556;55.748;13.194;2023-04-24T12:02:18;8.00;;;6.40;;
11771;SDS011;12556;55.748;13.194;2023-04-24T12:04:46;6.65;;;5.95;;
11771;SDS011;12556;55.748;13.194;2023-04-24T12:07:13;7.68;;;5.88;;
11771;SDS011;12556;55.748;13.194;2023-04-24T12:09:40;6.18;;;5.57;;
11771;SDS011;12556;55.748;13.194;2023-04-24T12:12:08;7.03;;;6.28;;
11771;SDS011;12556;55.748;13.194;2023-04-24T12:14:41;7.43;;;6.63;;
11771;SDS011;12556;55.748;13.194;2023-04-24T12:17:09;9.02;;;5.90;;
11771;SDS011;12556;55.748;13.194;2023-04-24T12:19:38;6.88;;;5.85;;
11771;SDS011;12556;55.748;13.194;2023-04-24T12:22:10;6.63;;;5.82;;
11771;SDS011;12556;55.748;13.194;2023-04-24T12:27:23;6.57;;;5.80;;
11771;SDS011;12556;55.748;13.194;2023-04-24T12:29:53;7.22;;;6.45;;
11771;SDS011;12556;55.748;13.194;2023-04-24T12:32:21;7.18;;;6.47;;
11771;SDS011;12556;55.748;13.194;2023-04-24T12:34:50;6.25;;;5.65;;
11771;SDS011;12556;55.748;13.194;2023-04-24T12:37:17;9.57;;;5.80;;
11771;SDS011;12556;55.748;13.194;2023-04-24T12:39:46;5.95;;;5.38;;
11771;SDS011;12556;55.748;13.194;2023-04-24T12:42:25;5.50;;;5.10;;
11771;SDS011;12556;55.748;13.194;2023-04-24T12:44:55;6.13;;;5.50;;
11771;SDS011;12556;55.748;13.194;2023-04-24T12:47:23;6.65;;;6.07;;
11771;SDS011;12556;55.748;13.194;2023-04-24T12:49:52;5.93;;;5.40;;
11771;SDS011;12556;55.748;13.194;2023-04-24T12:52:20;5.68;;;5.18;;
11771;SDS011;12556;55.748;13.194;2023-04-24T12:54:48;5.18;;;4.78;;
11771;SDS011;12556;55.748;13.194;2023-04-24T12:57:15;5.72;;;4.93;;
11771;SDS011;12556;55.748;13.194;2023-04-24T12:59:42;5.70;;;5.20;;
11771;SDS011;12556;55.748;13.194;2023-04-24T13:02:09;5.53;;;5.03;;
11771;SDS011;12556;55.748;13.194;2023-04-24T13:04:37;5.95;;;4.97;;
11771;SDS011;12556;55.748;13.194;2023-04-24T13:07:05;5.55;;;5.05;;
11771;SDS011;12556;55.748;13.194;2023-04-24T13:09:33;6.43;;;5.25;;
11771;SDS011;12556;55.748;13.194;2023-04-24T13:12:00;5.95;;;5.30;;
11771;SDS011;12556;55.748;13.194;2023-04-24T13:14:27;5.75;;;5.32;;
11771;SDS011;12556;55.748;13.194;2023-04-24T13:16:54;6.40;;;5.75;;
11771;SDS011;12556;55.748;13.194;2023-04-24T13:19:23;5.97;;;5.38;;
11771;SDS011;12556;55.748;13.194;2023-04-24T13:21:50;5.88;;;5.38;;
11771;SDS011;12556;55.748;13.194;2023-04-24T13:24:18;6.25;;;5.72;;
11771;SDS011;12556;55.748;13.194;2023-04-24T13:26:46;6.47;;;5.60;;
11771;SDS011;12556;55.748;13.194;2023-04-24T13:29:12;6.07;;;5.50;;
11771;SDS011;12556;55.748;13.194;2023-04-24T13:31:39;7.40;;;5.78;;
11771;SDS011;12556;55.748;13.194;2023-04-24T13:34:06;6.35;;;5.40;;
11771;SDS011;12556;55.748;13.194;2023-04-24T13:36:33;5.32;;;4.70;;
11771;SDS011;12556;55.748;13.194;2023-04-24T13:39:00;7.78;;;5.40;;
11771;SDS011;12556;55.748;13.194;2023-04-24T13:41:29;3.30;;;3.00;;
11771;SDS011;12556;55.748;13.194;2023-04-24T13:43:56;3.25;;;2.97;;
11771;SDS011;12556;55.748;13.194;2023-04-24T13:46:23;5.88;;;2.80;;
11771;SDS011;12556;55.748;13.194;2023-04-24T13:48:50;3.53;;;2.75;;
11771;SDS011;12556;55.748;13.194;2023-04-24T13:51:17;2.33;;;2.13;;
11771;SDS011;12556;55.748;13.194;2023-04-24T13:53:44;2.60;;;2.40;;
11771;SDS011;12556;55.748;13.194;2023-04-24T13:56:11;2.53;;;2.33;;
11771;SDS011;12556;55.748;13.194;2023-04-24T13:58:40;2.88;;;2.20;;
11771;SDS011;12556;55.748;13.194;2023-04-24T14:01:07;3.03;;;2.78;;
11771;SDS011;12556;55.748;13.194;2023-04-24T14:03:34;3.10;;;2.72;;
11771;SDS011;12556;55.748;13.194;2023-04-24T14:06:03;3.25;;;3.05;;
11771;SDS011;12556;55.748;13.194;2023-04-24T14:08:31;3.20;;;2.90;;
11771;SDS011;12556;55.748;13.194;2023-04-24T14:10:58;2.67;;;2.35;;
11771;SDS011;12556;55.748;13.194;2023-04-24T14:13:25;2.00;;;1.80;;
11771;SDS011;12556;55.748;13.194;2023-04-24T14:15:54;2.33;;;2.15;;
11771;SDS011;12556;55.748;13.194;2023-04-24T14:18:21;2.70;;;2.50;;
11771;SDS011;12556;55.748;13.194;2023-04-24T14:20:47;3.75;;;2.60;;
11771;SDS011;12556;55.748;13.194;2023-04-24T14:23:15;3.25;;;3.00;;
11771;SDS011;12556;55.748;13.194;2023-04-24T14:25:42;2.63;;;2.42;;
11771;SDS011;12556;55.748;13.194;2023-04-24T14:28:09;2.63;;;2.42;;
11771;SDS011;12556;55.748;13.194;2023-04-24T14:30:36;3.63;;;2.83;;
11771;SDS011;12556;55.748;13.194;2023-04-24T14:33:07;3.42;;;3.13;;
11771;SDS011;12556;55.748;13.194;2023-04-24T14:35:33;3.03;;;2.83;;
11771;SDS011;12556;55.748;13.194;2023-04-24T14:38:00;2.85;;;2.65;;